createdAt,value
2023-03-22T00:02:10.316Z,97485.56
2023-03-22T00:04:36.938Z,97486.50
2023-03-22T00:07:03.565Z,97483.09
2023-03-22T00:09:30.870Z,97478.72
2023-03-22T00:11:57.519Z,97483.50
2023-03-22T00:14:24.283Z,97488.00
2023-03-22T00:16:51.103Z,97482.19
2023-03-22T00:19:17.742Z,97485.81
2023-03-22T00:21:44.959Z,97474.72
2023-03-22T00:24:11.622Z,97483.47
2023-03-22T00:26:38.263Z,97485.28
2023-03-22T00:29:05.650Z,97482.91
2023-03-22T00:31:32.479Z,97476.19
2023-03-22T00:33:59.130Z,97477.78
2023-03-22T00:36:26.032Z,97482.28
2023-03-22T00:38:52.698Z,97476.25
2023-03-22T00:41:21.823Z,97476.78
2023-03-22T00:43:50.270Z,97474.78
2023-03-22T00:46:19.889Z,97477.13
2023-03-22T00:48:46.938Z,97477.84
2023-03-22T00:51:14.575Z,97479.34
2023-03-22T00:53:43.356Z,97470.75
2023-03-22T00:56:13.939Z,97481.13
2023-03-22T00:58:42.132Z,97485.81
2023-03-22T01:01:09.288Z,97480.19
2023-03-22T01:03:36.142Z,97485.88
2023-03-22T01:06:03.639Z,97479.84
2023-03-22T01:08:33.439Z,97489.84
2023-03-22T01:11:01.378Z,97482.84
2023-03-22T01:13:29.057Z,97482.38
2023-03-22T01:15:56.271Z,97485.88
2023-03-22T01:18:23.018Z,97483.16
2023-03-22T01:20:49.789Z,97481.47
2023-03-22T01:23:16.509Z,97481.28
2023-03-22T01:25:43.181Z,97478.56
2023-03-22T01:28:09.889Z,97482.97
2023-03-22T01:30:38.639Z,97477.31
2023-03-22T01:33:07.577Z,97479.13
2023-03-22T01:35:36.041Z,97483.16
2023-03-22T01:38:03.184Z,97473.09
2023-03-22T01:40:29.893Z,97473.84
2023-03-22T01:42:56.885Z,97478.03
2023-03-22T01:45:50.601Z,97474.06
2023-03-22T01:48:28.114Z,97472.78
2023-03-22T01:51:24.859Z,97465.31
2023-03-22T01:54:04.009Z,97459.97
2023-03-22T01:56:34.690Z,97460.22
2023-03-22T01:59:02.191Z,97463.31
2023-03-22T02:01:30.312Z,97461.69
2023-03-22T02:04:20.124Z,97460.41
2023-03-22T02:06:48.276Z,97454.81
2023-03-22T02:09:22.048Z,97454.38
2023-03-22T02:12:12.279Z,97443.25
2023-03-22T02:15:15.578Z,97441.94
2023-03-22T02:18:23.845Z,97435.41
2023-03-22T02:21:18.653Z,97438.69
2023-03-22T02:24:23.523Z,97439.75
2023-03-22T02:27:22.680Z,97445.91
2023-03-22T02:30:18.031Z,97435.19
2023-03-22T02:33:35.833Z,97428.78
2023-03-22T02:36:49.000Z,97426.19
2023-03-22T03:10:41.491Z,97400.16
2023-03-22T03:13:17.016Z,97398.28
2023-03-22T03:15:52.682Z,97394.44
2023-03-22T03:18:48.524Z,97399.88
2023-03-22T03:21:42.437Z,97396.22
2023-03-22T03:24:38.974Z,97396.63
2023-03-22T03:27:20.162Z,97387.88
2023-03-22T03:30:00.530Z,97395.72
2023-03-22T03:32:35.158Z,97394.59
2023-03-22T03:35:10.300Z,97393.84
2023-03-22T03:37:52.599Z,97395.44
2023-03-22T03:40:28.027Z,97396.72
2023-03-22T03:42:57.883Z,97395.59
2023-03-22T03:45:25.475Z,97401.06
2023-03-22T03:47:57.284Z,97401.44
2023-03-22T03:50:25.839Z,97393.66
2023-03-22T03:52:54.315Z,97402.56
2023-03-22T03:55:23.216Z,97405.84
2023-03-22T03:57:49.937Z,97401.28
2023-03-22T04:00:17.337Z,97404.22
2023-03-22T04:02:44.495Z,97407.72
2023-03-22T04:05:12.770Z,97401.78
2023-03-22T04:07:39.678Z,97403.44
2023-03-22T04:10:07.469Z,97407.84
2023-03-22T04:12:34.363Z,97403.09
2023-03-22T04:15:01.063Z,97404.03
2023-03-22T04:17:32.075Z,97407.88
2023-03-22T04:19:58.892Z,97403.22
2023-03-22T04:22:26.344Z,97414.13
2023-03-22T04:24:53.004Z,97417.44
2023-03-22T04:27:22.217Z,97419.44
2023-03-22T04:29:48.789Z,97419.44
2023-03-22T04:32:16.911Z,97413.06
2023-03-22T04:34:43.589Z,97417.25
2023-03-22T04:37:10.263Z,97412.53
2023-03-22T04:39:37.124Z,97416.16
2023-03-22T04:42:03.882Z,97410.53
2023-03-22T04:44:30.680Z,97412.69
2023-03-22T04:46:57.564Z,97425.59
2023-03-22T04:49:24.627Z,97415.78
2023-03-22T04:51:51.853Z,97423.03
2023-03-22T04:54:18.508Z,97417.78
2023-03-22T04:56:45.275Z,97417.06
2023-03-22T04:59:11.940Z,97417.97
2023-03-22T05:01:40.541Z,97419.81
2023-03-22T05:04:07.233Z,97419.44
2023-03-22T05:06:34.282Z,97428.69
2023-03-22T05:09:01.310Z,97430.84
2023-03-22T05:11:28.154Z,97434.50
2023-03-22T05:13:55.504Z,97434.31
2023-03-22T05:16:22.493Z,97440.69
2023-03-22T05:18:49.914Z,97447.41
2023-03-22T05:21:21.981Z,97453.38
2023-03-22T05:23:52.149Z,97458.63
2023-03-22T05:26:20.545Z,97465.00
2023-03-22T05:28:47.167Z,97461.75
2023-03-22T05:31:15.547Z,97460.66
2023-03-22T05:33:42.334Z,97456.81
2023-03-22T05:36:11.244Z,97456.09
2023-03-22T05:38:38.426Z,97449.38
2023-03-22T05:41:05.765Z,97460.78
2023-03-22T05:43:32.808Z,97459.91
2023-03-22T05:45:59.688Z,97467.72
2023-03-22T05:48:26.298Z,97459.19
2023-03-22T05:50:52.913Z,97461.53
2023-03-22T05:53:19.571Z,97455.91
2023-03-22T05:55:46.199Z,97455.00
2023-03-22T05:58:12.975Z,97456.81
2023-03-22T06:00:40.294Z,97470.63
2023-03-22T06:03:07.921Z,97463.53
2023-03-22T06:05:36.612Z,97460.09
2023-03-22T06:08:04.065Z,97459.53
2023-03-22T06:10:30.937Z,97466.63
2023-03-22T06:12:57.586Z,97459.53
2023-03-22T06:15:24.341Z,97462.09
2023-03-22T06:17:51.350Z,97447.03
2023-03-22T06:20:18.300Z,97445.59
2023-03-22T06:22:44.998Z,97444.84
2023-03-22T06:25:11.849Z,97443.59
2023-03-22T06:27:38.515Z,97430.16
2023-03-22T06:30:06.342Z,97434.13
2023-03-22T06:32:32.971Z,97434.66
2023-03-22T06:35:15.634Z,97435.53
2023-03-22T06:37:42.463Z,97440.97
2023-03-22T06:40:09.999Z,97443.66
2023-03-22T06:42:37.056Z,97444.31
2023-03-22T06:45:04.656Z,97437.56
2023-03-22T06:47:31.392Z,97446.72
2023-03-22T06:49:58.215Z,97449.38
2023-03-22T06:52:24.989Z,97452.75
2023-03-22T06:54:51.597Z,97445.56
2023-03-22T06:57:18.175Z,97451.25
2023-03-22T06:59:44.712Z,97449.06
2023-03-22T07:02:13.057Z,97451.50
2023-03-22T07:04:39.661Z,97452.31
2023-03-22T07:07:06.285Z,97449.59
2023-03-22T07:09:32.898Z,97456.34
2023-03-22T07:11:59.506Z,97448.66
2023-03-22T07:14:26.226Z,97453.75
2023-03-22T07:16:52.773Z,97453.63
2023-03-22T07:19:19.433Z,97458.81
2023-03-22T07:21:46.023Z,97450.09
2023-03-22T07:24:13.840Z,97463.19
2023-03-22T07:26:41.029Z,97460.69
2023-03-22T07:29:07.644Z,97461.28
2023-03-22T07:31:36.464Z,97464.09
2023-03-22T07:34:04.040Z,97462.91
2023-03-22T07:36:31.035Z,97467.16
2023-03-22T07:38:58.021Z,97461.91
2023-03-22T07:41:25.849Z,97460.66
2023-03-22T07:43:58.249Z,97463.28
2023-03-22T07:46:26.805Z,97465.06
2023-03-22T07:48:53.471Z,97459.16
2023-03-22T07:51:20.383Z,97465.09
2023-03-22T07:53:47.098Z,97465.66
2023-03-22T07:56:13.958Z,97461.19
2023-03-22T07:58:40.728Z,97467.22
2023-03-22T08:01:10.026Z,97467.31
2023-03-22T08:03:37.666Z,97469.59
2023-03-22T08:06:08.113Z,97466.53
2023-03-22T08:08:36.997Z,97464.19
2023-03-22T08:11:07.783Z,97466.94
2023-03-22T08:13:34.536Z,97469.09
2023-03-22T08:16:01.741Z,97466.53
2023-03-22T08:18:28.392Z,97466.94
2023-03-22T08:20:59.891Z,97469.91
2023-03-22T08:23:40.524Z,97470.38
2023-03-22T08:26:08.773Z,97477.03
2023-03-22T08:28:35.604Z,97474.31
2023-03-22T08:31:02.402Z,97467.19
2023-03-22T08:33:29.107Z,97461.53
2023-03-22T08:36:10.927Z,97464.03
2023-03-22T08:38:37.802Z,97462.03
2023-03-22T08:41:04.769Z,97458.16
2023-03-22T08:43:31.406Z,97459.22
2023-03-22T08:45:58.375Z,97459.81
2023-03-22T08:48:25.330Z,97457.09
2023-03-22T08:50:52.106Z,97462.34
2023-03-22T08:53:18.726Z,97456.78
2023-03-22T08:55:45.349Z,97456.94
2023-03-22T08:58:16.557Z,97447.59
2023-03-22T09:00:49.095Z,97445.28
2023-03-22T09:03:17.077Z,97446.28
2023-03-22T09:05:44.074Z,97441.97
2023-03-22T09:08:18.646Z,97449.34
2023-03-22T09:10:51.953Z,97446.00
2023-03-22T09:13:19.980Z,97440.19
2023-03-22T09:15:47.271Z,97432.50
2023-03-22T09:18:14.636Z,97436.22
2023-03-22T09:20:41.470Z,97435.31
2023-03-22T09:23:08.237Z,97429.34
2023-03-22T09:25:34.965Z,97424.97
2023-03-22T09:28:02.215Z,97424.03
2023-03-22T09:30:28.856Z,97426.63
2023-03-22T09:32:55.596Z,97431.78
2023-03-22T09:35:22.774Z,97416.53
2023-03-22T09:37:49.550Z,97415.03
2023-03-22T09:40:17.791Z,97415.28
2023-03-22T09:42:48.077Z,97409.31
2023-03-22T09:45:19.336Z,97411.75
2023-03-22T09:47:48.924Z,97404.22
2023-03-22T09:50:20.919Z,97403.50
2023-03-22T09:52:48.026Z,97404.53
2023-03-22T09:55:41.630Z,97394.97
2023-03-22T09:58:37.535Z,97392.63
2023-03-22T10:01:21.121Z,97385.56
2023-03-22T10:04:22.070Z,97385.97
2023-03-22T10:06:59.829Z,97388.41
2023-03-22T10:09:35.282Z,97385.56
2023-03-22T10:12:30.118Z,97381.28
2023-03-22T10:15:10.494Z,97383.31
2023-03-22T10:17:39.797Z,97374.31
2023-03-22T10:20:28.704Z,97374.97
2023-03-22T10:22:58.408Z,97374.66
2023-03-22T10:25:37.206Z,97370.84
2023-03-22T10:28:16.352Z,97364.16
2023-03-22T10:30:45.270Z,97361.78
2023-03-22T10:33:19.414Z,97362.28
2023-03-22T10:35:47.055Z,97360.38
2023-03-22T10:38:22.685Z,97352.97
2023-03-22T10:40:50.988Z,97347.47
2023-03-22T10:43:23.686Z,97343.84
2023-03-22T10:45:53.296Z,97345.53
2023-03-22T10:48:33.601Z,97339.44
2023-03-22T10:51:01.294Z,97341.13
2023-03-22T10:53:45.706Z,97337.63
2023-03-22T10:56:15.807Z,97332.72
2023-03-22T10:58:42.648Z,97334.41
2023-03-22T11:01:12.714Z,97335.34
2023-03-22T11:03:49.526Z,97329.44
2023-03-22T11:06:23.438Z,97329.44
2023-03-22T11:08:56.817Z,97335.94
2023-03-22T11:11:45.225Z,97330.41
2023-03-22T11:14:20.392Z,97333.00
2023-03-22T11:17:14.126Z,97331.69
2023-03-22T11:19:50.340Z,97331.44
2023-03-22T11:22:37.731Z,97330.63
2023-03-22T11:25:13.597Z,97330.53
2023-03-22T11:27:51.181Z,97327.78
2023-03-22T11:30:22.914Z,97321.53
2023-03-22T11:32:59.210Z,97317.59
2023-03-22T11:35:29.276Z,97312.06
2023-03-22T11:37:56.602Z,97305.59
2023-03-22T11:40:26.384Z,97306.59
2023-03-22T11:42:56.476Z,97299.47
2023-03-22T11:45:29.652Z,97299.03
2023-03-22T11:48:06.596Z,97300.13
2023-03-22T11:50:38.255Z,97297.38
2023-03-22T11:53:12.219Z,97298.94
2023-03-22T11:55:39.365Z,97294.75
2023-03-22T11:58:06.761Z,97301.63
2023-03-22T12:00:38.626Z,97289.72
2023-03-22T12:03:13.844Z,97291.59
2023-03-22T12:05:44.490Z,97293.63
2023-03-22T12:08:33.419Z,97287.22
2023-03-22T12:11:11.416Z,97288.16
2023-03-22T12:13:54.496Z,97276.16
2023-03-22T12:16:38.942Z,97282.09
2023-03-22T12:19:41.583Z,97269.84
2023-03-22T12:22:16.050Z,97261.88
2023-03-22T12:24:43.122Z,97253.59
2023-03-22T12:27:31.322Z,97258.31
2023-03-22T12:30:04.101Z,97254.50
2023-03-22T12:32:36.130Z,97249.19
2023-03-22T12:35:16.731Z,97255.53
2023-03-22T12:37:48.426Z,97252.06
2023-03-22T12:40:27.337Z,97254.41
2023-03-22T12:43:18.798Z,97248.78
2023-03-22T12:45:49.972Z,97245.41
2023-03-22T12:48:30.849Z,97238.25
2023-03-22T12:51:05.545Z,97234.34
2023-03-22T12:53:42.347Z,97226.00
2023-03-22T12:56:16.355Z,97234.59
2023-03-22T12:58:48.945Z,97221.03
2023-03-22T13:01:56.791Z,97219.50
2023-03-22T13:04:51.246Z,97225.75
2023-03-22T13:07:52.089Z,97213.44
2023-03-22T13:11:02.041Z,97207.38
2023-03-22T13:13:42.169Z,97204.25
2023-03-22T13:16:22.701Z,97208.63
2023-03-22T13:19:17.324Z,97191.31
2023-03-22T13:21:44.090Z,97196.34
2023-03-22T13:24:15.362Z,97188.88
2023-03-22T13:26:51.598Z,97194.13
2023-03-22T13:29:36.215Z,97190.19
2023-03-22T13:32:33.601Z,97183.97
2023-03-22T13:35:00.867Z,97188.50
2023-03-22T13:37:37.178Z,97184.53
2023-03-22T13:40:22.117Z,97185.38
2023-03-22T13:42:50.677Z,97182.84
2023-03-22T13:45:33.331Z,97178.53
2023-03-22T13:48:12.326Z,97182.19
2023-03-22T13:50:40.038Z,97176.66
2023-03-22T13:53:21.527Z,97179.03
2023-03-22T13:56:07.353Z,97168.69
2023-03-22T13:58:41.241Z,97174.94
2023-03-22T14:01:16.584Z,97167.28
2023-03-22T14:03:45.713Z,97164.50
2023-03-22T14:06:31.805Z,97155.09
2023-03-22T14:09:02.561Z,97150.72
2023-03-22T14:11:43.882Z,97154.06
2023-03-22T14:14:19.305Z,97144.78
2023-03-22T14:16:51.557Z,97138.59
2023-03-22T14:19:25.717Z,97136.34
